Time;durP1;ratioP1;P1;durP2;ratioP2;P2;SDS_P1;SDS_P2;PMS_P1;PMS_P2;Temp;Humidity;BMP_temperature;BMP_pressure;BME280_temperature;BME280_humidity;BME280_pressure;Samples;Min_cycle;Max_cycle;Signal;HPM_P1;HPM_P2
2023/11/10 00:01:46;;;;;;;6.10;2.77;;;7.40;99.90;;;;;;5013598;28;20103;-80
2023/11/10 00:04:12;;;;;;;7.03;3.37;;;7.50;99.90;;;;;;5028642;28;20128;-79
2023/11/10 00:06:37;;;;;;;6.80;2.97;;;7.40;99.90;;;;;;5013554;28;20092;-80
2023/11/10 00:09:04;;;;;;;6.53;3.13;;;7.50;99.90;;;;;;5013428;28;20487;-80
2023/11/10 00:11:30;;;;;;;9.13;3.07;;;7.40;99.90;;;;;;5014934;28;20030;-80
2023/11/10 00:13:55;;;;;;;8.80;3.03;;;7.50;99.90;;;;;;5013594;28;20109;-78
2023/11/10 00:16:21;;;;;;;9.63;3.43;;;7.40;99.90;;;;;;5012531;28;20029;-79
2023/11/10 00:18:47;;;;;;;5.60;3.43;;;7.50;99.90;;;;;;5013101;28;20496;-79
2023/11/10 00:21:23;;;;;;;6.60;3.00;;;7.50;99.90;;;;;;5028555;28;20112;-78
2023/11/10 00:23:49;;;;;;;7.03;3.07;;;7.50;99.90;;;;;;5013451;28;20424;-78
2023/11/10 00:26:24;;;;;;;6.67;3.10;;;7.50;99.90;;;;;;5013243;28;20025;-79
2023/11/10 00:28:52;;;;;;;6.93;2.60;;;7.50;99.90;;;;;;5011660;28;20018;-79
2023/11/10 00:31:21;;;;;;;11.33;2.93;;;7.50;99.90;;;;;;5012876;28;20504;-78
2023/11/10 00:33:50;;;;;;;12.33;3.73;;;7.50;99.90;;;;;;5028409;28;20030;-79
2023/11/10 00:36:17;;;;;;;9.20;2.90;;;7.50;99.90;;;;;;5039699;23;21024;-79
2023/11/10 00:38:44;;;;;;;8.10;3.00;;;7.60;99.90;;;;;;5052818;28;20108;-80
2023/11/10 00:41:09;;;;;;;8.33;2.67;;;7.50;99.90;;;;;;5052860;28;20502;-79
2023/11/10 00:43:35;;;;;;;8.10;3.27;;;7.50;99.90;;;;;;5051211;28;20057;-80
2023/11/10 00:46:01;;;;;;;8.77;3.50;;;7.60;99.90;;;;;;5051609;28;20460;-78
2023/11/10 00:48:26;;;;;;;8.00;2.77;;;7.60;99.90;;;;;;5051542;28;20111;-79
2023/11/10 00:50:52;;;;;;;9.47;2.80;;;7.60;99.90;;;;;;5052865;28;20025;-79
2023/11/10 00:53:20;;;;;;;7.63;2.97;;;7.60;99.90;;;;;;5051495;28;20024;-79
2023/11/10 00:55:46;;;;;;;6.00;2.27;;;7.60;99.90;;;;;;5052560;28;20492;-79
2023/11/10 00:58:11;;;;;;;7.13;2.40;;;7.70;99.90;;;;;;5051186;28;20033;-79
2023/11/10 01:00:37;;;;;;;7.43;2.77;;;7.70;99.90;;;;;;5052656;28;20018;-79
2023/11/10 01:03:03;;;;;;;6.57;2.07;;;7.70;99.90;;;;;;5052711;28;20033;-80
2023/11/10 01:05:29;;;;;;;6.10;2.40;;;7.70;99.90;;;;;;5052688;28;20531;-79
2023/11/10 01:07:54;;;;;;;7.43;2.37;;;7.70;99.90;;;;;;5051302;28;20028;-78
2023/11/10 01:10:20;;;;;;;7.67;2.33;;;7.70;99.90;;;;;;5051014;28;20068;-79
2023/11/10 01:12:47;;;;;;;8.47;2.03;;;7.80;99.90;;;;;;5052280;28;20029;-78
2023/11/10 01:15:15;;;;;;;4.70;1.67;;;7.80;99.90;;;;;;5051144;28;20431;-79
2023/11/10 01:17:42;;;;;;;7.37;2.03;;;7.80;99.90;;;;;;5052627;28;20093;-78
2023/11/10 01:20:11;;;;;;;5.33;1.97;;;7.80;99.90;;;;;;5051224;28;20416;-78
2023/11/10 01:22:38;;;;;;;6.60;2.23;;;7.80;99.90;;;;;;5051419;28;20029;-78
2023/11/10 01:25:13;;;;;;;7.67;1.80;;;7.80;99.90;;;;;;5051285;28;20049;-79
2023/11/10 01:27:41;;;;;;;6.83;1.70;;;7.80;99.90;;;;;;5051626;28;20021;-78
2023/11/10 01:30:07;;;;;;;5.40;1.47;;;7.90;99.90;;;;;;5056055;28;20040;-79
2023/11/10 01:32:34;;;;;;;3.67;1.40;;;7.80;99.90;;;;;;5056179;28;20365;-79
2023/11/10 01:35:00;;;;;;;5.37;1.60;;;7.90;99.90;;;;;;5055692;28;20029;-79
2023/11/10 01:37:26;;;;;;;4.67;1.30;;;7.90;99.90;;;;;;5054539;28;20496;-78
2023/11/10 01:39:51;;;;;;;4.37;1.23;;;7.90;99.90;;;;;;5054703;28;20472;-79
2023/11/10 01:42:17;;;;;;;7.37;1.80;;;7.90;99.90;;;;;;5055635;28;20186;-78
2023/11/10 01:44:43;;;;;;;7.17;1.90;;;7.90;99.90;;;;;;5054577;28;20472;-78
2023/11/10 01:47:10;;;;;;;9.33;1.70;;;7.90;99.90;;;;;;5054457;28;20078;-79
2023/11/10 01:49:38;;;;;;;6.00;1.40;;;8.00;99.90;;;;;;5056231;28;20025;-79
2023/11/10 01:52:04;;;;;;;5.03;1.93;;;8.00;99.90;;;;;;5055803;28;20477;-79
2023/11/10 01:57:47;;;;;;;7.13;1.70;;;8.00;99.90;;;;;;3065293;22;20119;-78
2023/11/10 02:00:13;;;;;;;4.43;1.43;;;8.00;99.90;;;;;;5005182;22;20049;-79
2023/11/10 02:02:38;;;;;;;9.53;1.90;;;8.00;99.90;;;;;;5069515;28;20029;-79
2023/11/10 02:05:07;;;;;;;5.53;1.07;;;8.00;99.90;;;;;;5073993;28;20048;-80
2023/11/10 02:07:33;;;;;;;5.20;1.40;;;8.00;99.90;;;;;;5072675;28;20078;-79
2023/11/10 02:09:59;;;;;;;5.00;1.30;;;8.00;99.90;;;;;;5060410;28;20531;-79
2023/11/10 02:12:24;;;;;;;3.30;1.03;;;8.00;99.90;;;;;;5074292;28;20032;-80
2023/11/10 02:14:50;;;;;;;7.23;1.50;;;8.00;99.90;;;;;;5075489;28;20483;-80
2023/11/10 02:17:16;;;;;;;5.57;1.17;;;8.10;99.90;;;;;;5075293;28;20025;-80
2023/11/10 02:19:41;;;;;;;3.80;1.20;;;8.00;99.90;;;;;;5073761;28;20108;-79
2023/11/10 02:22:07;;;;;;;4.13;1.13;;;8.10;99.90;;;;;;5074951;28;20031;-80
2023/11/10 02:24:35;;;;;;;5.93;1.20;;;8.10;99.90;;;;;;5074112;28;20475;-79
2023/11/10 02:27:01;;;;;;;3.23;0.90;;;8.10;99.90;;;;;;5074881;28;20103;-79
2023/11/10 02:29:26;;;;;;;5.27;0.90;;;8.10;99.90;;;;;;5073324;28;20487;-80
2023/11/10 02:31:54;;;;;;;2.33;0.83;;;8.10;99.90;;;;;;5075187;28;20105;-83
2023/11/10 02:34:20;;;;;;;4.83;1.07;;;8.10;99.90;;;;;;5074900;28;20024;-80
2023/11/10 02:36:46;;;;;;;3.10;0.93;;;8.10;99.90;;;;;;5073505;28;20442;-79
2023/11/10 02:39:11;;;;;;;6.63;0.90;;;8.10;99.90;;;;;;5071178;28;20031;-79
2023/11/10 02:41:37;;;;;;;8.20;1.13;;;8.10;99.90;;;;;;5059928;28;20422;-80
2023/11/10 02:44:03;;;;;;;5.80;1.00;;;8.10;99.90;;;;;;5074638;28;20391;-82
2023/11/10 02:46:29;;;;;;;9.73;1.20;;;8.10;99.90;;;;;;5074813;28;20031;-80
2023/11/10 02:48:54;;;;;;;9.73;1.50;;;8.10;99.90;;;;;;5071784;28;20056;-79
2023/11/10 02:51:20;;;;;;;5.47;1.10;;;8.10;99.90;;;;;;5070390;28;20142;-80
2023/11/10 02:53:46;;;;;;;7.23;1.23;;;8.10;99.90;;;;;;5074094;28;20493;-79
2023/11/10 02:56:11;;;;;;;8.43;1.57;;;8.10;99.90;;;;;;5073047;28;20051;-79
2023/11/10 02:58:37;;;;;;;4.20;0.90;;;8.10;99.90;;;;;;5075250;28;20041;-79
2023/11/10 03:01:03;;;;;;;3.60;1.00;;;8.10;99.90;;;;;;5076476;28;20035;-80
2023/11/10 03:03:28;;;;;;;7.77;1.13;;;8.10;99.90;;;;;;5075485;28;20032;-77
2023/11/10 03:05:56;;;;;;;3.47;0.90;;;8.00;99.90;;;;;;5074721;28;20550;-79
2023/11/10 03:08:21;;;;;;;3.17;0.90;;;8.10;99.90;;;;;;5072859;28;20024;-77
2023/11/10 03:10:47;;;;;;;2.20;0.80;;;8.10;99.90;;;;;;5072959;28;20046;-78
2023/11/10 03:13:12;;;;;;;2.97;0.97;;;8.10;99.90;;;;;;5074209;28;20024;-78
2023/11/10 03:15:38;;;;;;;4.00;0.90;;;8.10;99.90;;;;;;5072926;28;20024;-79
2023/11/10 03:18:04;;;;;;;4.20;1.00;;;8.20;99.90;;;;;;5072513;28;20036;-78
2023/11/10 03:20:30;;;;;;;6.33;1.10;;;8.10;99.90;;;;;;5074382;28;20028;-78
2023/11/10 03:22:56;;;;;;;3.97;1.03;;;8.20;99.90;;;;;;5072736;28;20016;-79
2023/11/10 03:25:21;;;;;;;4.70;1.20;;;8.20;99.90;;;;;;5073737;28;20051;-79
2023/11/10 03:27:47;;;;;;;4.53;0.93;;;8.10;99.90;;;;;;5073976;28;20107;-76
2023/11/10 03:30:13;;;;;;;3.40;1.10;;;8.20;99.90;;;;;;5073784;28;20100;-78
2023/11/10 03:32:39;;;;;;;5.97;1.07;;;8.20;99.90;;;;;;5072226;28;20407;-79
2023/11/10 03:35:06;;;;;;;2.87;0.90;;;8.20;99.90;;;;;;5073707;28;20025;-78
2023/11/10 03:37:31;;;;;;;3.93;1.10;;;8.20;99.90;;;;;;5073701;28;20078;-78
2023/11/10 03:39:57;;;;;;;3.67;1.17;;;8.30;99.90;;;;;;5073488;28;20032;-77
2023/11/10 03:42:22;;;;;;;3.73;1.10;;;8.30;99.90;;;;;;5072115;28;20016;-79
2023/11/10 03:44:48;;;;;;;2.83;0.90;;;8.30;99.90;;;;;;5072177;28;20020;-78
2023/11/10 03:47:14;;;;;;;4.83;1.07;;;8.40;99.90;;;;;;5072971;28;20468;-78
2023/11/10 03:49:40;;;;;;;4.87;1.27;;;8.40;99.90;;;;;;5073760;28;20379;-79
2023/11/10 03:52:06;;;;;;;4.23;1.10;;;8.40;99.90;;;;;;5073074;28;20028;-80
2023/11/10 03:54:32;;;;;;;3.87;1.03;;;8.40;99.90;;;;;;5073390;28;20029;-79
2023/11/10 03:56:58;;;;;;;6.93;1.30;;;8.50;99.90;;;;;;5073322;28;20426;-78
2023/11/10 03:59:24;;;;;;;3.80;1.50;;;8.40;99.90;;;;;;5073329;28;20048;-79
2023/11/10 04:01:49;;;;;;;4.67;1.33;;;8.40;99.90;;;;;;5071922;28;20107;-79
2023/11/10 04:04:15;;;;;;;3.47;1.00;;;8.50;99.90;;;;;;5073179;28;20028;-77
2023/11/10 04:06:41;;;;;;;5.50;1.60;;;8.50;99.90;;;;;;5073323;28;20024;-78
2023/11/10 04:09:08;;;;;;;3.13;0.90;;;8.50;99.90;;;;;;5072004;28;20099;-79
2023/11/10 04:11:33;;;;;;;7.17;1.00;;;8.40;99.90;;;;;;5073129;28;20021;-79
2023/11/10 04:13:59;;;;;;;4.73;0.90;;;8.40;99.90;;;;;;5072985;28;20031;-78
2023/11/10 04:16:25;;;;;;;3.47;0.90;;;8.50;99.90;;;;;;5073355;28;20103;-78
2023/11/10 04:18:54;;;;;;;5.20;1.10;;;8.50;99.90;;;;;;5076315;28;20090;-80
2023/11/10 04:21:26;;;;;;;7.10;1.13;;;8.50;99.90;;;;;;5075523;28;20024;-79
2023/11/10 04:23:52;;;;;;;3.87;0.90;;;8.50;99.90;;;;;;5072737;28;20067;-80
2023/11/10 04:26:18;;;;;;;5.60;0.90;;;8.50;99.90;;;;;;5073232;28;20060;-78
2023/11/10 04:28:47;;;;;;;5.00;0.80;;;8.50;99.90;;;;;;5073129;28;20122;-79
2023/11/10 04:31:14;;;;;;;7.83;0.80;;;8.50;99.90;;;;;;5071989;28;20551;-79
2023/11/10 04:33:43;;;;;;;4.73;1.03;;;8.50;99.90;;;;;;5073379;28;20364;-79
2023/11/10 04:36:09;;;;;;;3.10;0.90;;;8.50;99.90;;;;;;5072822;28;20036;-80
2023/11/10 04:38:35;;;;;;;3.77;0.80;;;8.50;99.90;;;;;;5072838;28;20021;-79
2023/11/10 04:41:02;;;;;;;5.30;1.10;;;8.50;99.90;;;;;;5072912;28;20025;-80
2023/11/10 04:43:29;;;;;;;2.33;0.70;;;8.50;99.90;;;;;;5071618;28;20024;-79
2023/11/10 04:45:54;;;;;;;8.30;1.00;;;8.50;99.90;;;;;;5073741;28;20032;-79
2023/11/10 04:48:20;;;;;;;2.37;0.80;;;8.50;99.90;;;;;;5071484;28;20192;-79
2023/11/10 04:50:47;;;;;;;3.60;0.97;;;8.50;99.90;;;;;;5071738;28;20017;-80
2023/11/10 04:53:13;;;;;;;4.03;0.93;;;8.50;99.90;;;;;;5072556;28;20032;-78
2023/11/10 04:55:39;;;;;;;4.23;1.23;;;8.50;99.90;;;;;;5072704;28;20391;-79
2023/11/10 04:58:05;;;;;;;2.77;0.80;;;8.50;99.90;;;;;;5072344;28;20094;-80
2023/11/10 05:00:30;;;;;;;7.43;0.93;;;8.50;99.90;;;;;;5072903;28;20036;-79
2023/11/10 05:02:59;;;;;;;5.97;1.00;;;8.50;99.90;;;;;;5074826;28;20074;-80
2023/11/10 05:05:25;;;;;;;4.70;1.30;;;8.50;99.90;;;;;;5076553;28;20021;-79
2023/11/10 05:07:51;;;;;;;3.80;0.80;;;8.50;99.90;;;;;;5076447;28;20036;-79
2023/11/10 05:10:17;;;;;;;4.73;1.13;;;8.50;99.90;;;;;;5076593;28;20028;-79
2023/11/10 05:12:43;;;;;;;4.17;0.60;;;8.50;99.90;;;;;;5075244;28;20021;-80
2023/11/10 05:15:10;;;;;;;3.60;0.70;;;8.50;99.90;;;;;;5076695;28;20032;-80
2023/11/10 05:17:44;;;;;;;4.17;0.80;;;8.50;99.90;;;;;;5075080;28;20028;-79
2023/11/10 05:20:11;;;;;;;3.30;0.85;;;8.50;99.90;;;;;;5075049;28;20029;-80
2023/11/10 05:22:39;;;;;;;2.70;0.80;;;8.50;99.90;;;;;;5074948;28;20029;-80
2023/11/10 05:25:06;;;;;;;2.80;0.60;;;8.50;99.90;;;;;;5076441;28;20027;-79
2023/11/10 05:27:31;;;;;;;4.13;0.97;;;8.50;99.90;;;;;;5075890;28;20479;-81
2023/11/10 05:29:58;;;;;;;3.93;0.80;;;8.50;99.90;;;;;;5076232;28;20031;-81
2023/11/10 05:32:23;;;;;;;5.07;0.80;;;8.50;99.90;;;;;;5076109;28;20032;-80
2023/11/10 05:34:54;;;;;;;4.47;1.00;;;8.50;99.90;;;;;;5076256;28;20020;-78
2023/11/10 05:37:23;;;;;;;4.27;1.10;;;8.50;99.90;;;;;;5075665;28;20042;-79
2023/11/10 05:39:50;;;;;;;5.37;1.30;;;8.50;99.90;;;;;;5076135;28;20119;-79
2023/11/10 05:42:17;;;;;;;6.03;1.07;;;8.50;99.90;;;;;;5076108;28;20077;-79
2023/11/10 05:44:43;;;;;;;5.83;1.07;;;8.50;99.90;;;;;;5076001;28;20029;-76
2023/11/10 05:47:09;;;;;;;3.77;0.90;;;8.40;99.90;;;;;;5076173;28;20406;-81
2023/11/10 05:49:35;;;;;;;4.63;0.90;;;8.50;99.90;;;;;;5074356;28;20024;-82
2023/11/10 05:52:01;;;;;;;3.13;0.90;;;8.40;99.90;;;;;;5075621;28;20067;-81
2023/11/10 05:54:29;;;;;;;3.57;1.10;;;8.40;99.90;;;;;;5075499;28;20056;-82
2023/11/10 05:56:54;;;;;;;5.43;0.80;;;8.40;99.90;;;;;;5075888;28;20025;-83
2023/11/10 05:59:21;;;;;;;3.93;0.87;;;8.50;99.90;;;;;;5074264;28;20127;-82
2023/11/10 06:01:47;;;;;;;3.40;0.70;;;8.40;99.90;;;;;;5074034;28;20028;-82
2023/11/10 06:04:14;;;;;;;5.00;0.90;;;8.30;99.90;;;;;;5075250;28;20048;-84
2023/11/10 06:06:41;;;;;;;6.87;1.00;;;8.30;99.90;;;;;;5074370;28;20036;-83
2023/11/10 06:09:07;;;;;;;4.57;1.00;;;8.30;99.90;;;;;;5074821;28;20112;-84
2023/11/10 06:11:34;;;;;;;4.37;0.83;;;8.20;99.90;;;;;;5068953;28;20060;-82
2023/11/10 06:14:01;;;;;;;5.37;1.00;;;8.20;99.90;;;;;;5069621;28;20021;-82
2023/11/10 06:16:28;;;;;;;4.73;0.87;;;8.10;99.90;;;;;;5065276;28;20028;-82
2023/11/10 06:18:54;;;;;;;3.77;0.93;;;8.00;99.90;;;;;;5063570;28;20087;-82
2023/11/10 06:21:21;;;;;;;3.70;0.77;;;8.00;99.90;;;;;;5065346;28;20023;-82
2023/11/10 06:23:50;;;;;;;3.07;0.77;;;8.00;99.90;;;;;;5064891;28;20027;-81
2023/11/10 06:26:20;;;;;;;2.70;0.80;;;7.90;99.90;;;;;;5064015;28;20028;-82
2023/11/10 06:28:50;;;;;;;4.63;0.80;;;7.90;99.90;;;;;;5064328;28;20021;-83
2023/11/10 06:31:16;;;;;;;4.67;1.10;;;7.80;99.90;;;;;;5064112;28;20012;-83
2023/11/10 06:33:42;;;;;;;5.00;0.90;;;7.80;99.90;;;;;;5065482;28;20065;-83
2023/11/10 06:36:08;;;;;;;4.47;0.80;;;7.80;99.90;;;;;;5062416;28;20100;-82
2023/11/10 06:38:34;;;;;;;3.53;0.70;;;7.70;99.90;;;;;;5063093;28;20032;-83
2023/11/10 06:41:00;;;;;;;4.53;0.90;;;7.70;99.90;;;;;;5063474;28;20039;-83
2023/11/10 06:43:27;;;;;;;3.57;0.63;;;7.70;99.90;;;;;;5064186;28;20016;-82
2023/11/10 06:45:52;;;;;;;5.67;0.90;;;7.70;99.90;;;;;;5064062;28;20017;-83
2023/11/10 06:48:19;;;;;;;4.60;0.90;;;7.60;99.90;;;;;;5061868;28;20017;-82
2023/11/10 06:50:45;;;;;;;4.37;0.90;;;7.60;99.90;;;;;;5063827;28;20095;-81
2023/11/10 06:53:11;;;;;;;2.73;0.80;;;7.70;99.90;;;;;;5063818;28;20021;-83
2023/11/10 06:55:37;;;;;;;4.07;0.73;;;7.60;99.90;;;;;;5069255;28;20483;-82
2023/11/10 06:58:03;;;;;;;4.93;1.00;;;7.60;99.90;;;;;;5064814;28;20029;-83
2023/11/10 07:00:29;;;;;;;6.43;0.83;;;7.60;99.90;;;;;;5060835;28;20044;-81
2023/11/10 07:02:59;;;;;;;3.30;0.93;;;7.60;99.90;;;;;;5055302;28;20025;-83
2023/11/10 07:05:26;;;;;;;3.93;0.80;;;7.70;99.90;;;;;;5066650;28;20024;-82
2023/11/10 07:07:56;;;;;;;5.07;1.00;;;7.60;99.90;;;;;;5072955;28;20025;-82
2023/11/10 07:10:22;;;;;;;5.37;0.90;;;7.50;99.90;;;;;;5053429;28;20021;-82
2023/11/10 07:12:47;;;;;;;4.93;0.90;;;7.60;99.90;;;;;;5056176;28;20037;-81
2023/11/10 07:15:13;;;;;;;8.07;1.53;;;7.60;99.90;;;;;;5055145;28;20024;-82
2023/11/10 07:17:41;;;;;;;3.30;0.77;;;7.60;99.90;;;;;;5053388;28;20029;-82
2023/11/10 07:20:11;;;;;;;4.40;1.00;;;7.60;99.90;;;;;;5069088;28;20254;-83
2023/11/10 07:22:38;;;;;;;6.83;0.77;;;7.60;99.90;;;;;;5051645;28;20099;-84
2023/11/10 07:25:04;;;;;;;5.70;0.80;;;7.60;99.90;;;;;;5053329;28;20021;-83
2023/11/10 07:27:30;;;;;;;3.53;0.70;;;7.70;99.90;;;;;;5053565;28;20055;-81
2023/11/10 07:29:56;;;;;;;6.60;1.10;;;7.70;99.90;;;;;;5053464;28;20106;-83
2023/11/10 07:32:22;;;;;;;4.47;1.10;;;7.80;99.90;;;;;;5053088;28;20108;-80
2023/11/10 07:34:48;;;;;;;4.13;1.10;;;7.70;99.90;;;;;;5053639;28;20124;-81
2023/11/10 07:37:14;;;;;;;4.73;0.90;;;7.80;99.90;;;;;;5053601;28;20040;-81
2023/11/10 07:39:43;;;;;;;4.73;0.83;;;7.80;99.90;;;;;;5053367;28;20484;-83
2023/11/10 07:42:08;;;;;;;6.47;1.30;;;7.90;99.90;;;;;;5060160;28;20105;-83
2023/11/10 07:44:34;;;;;;;4.73;0.80;;;7.90;99.90;;;;;;5073592;28;20067;-83
2023/11/10 07:47:00;;;;;;;6.63;1.13;;;7.90;99.90;;;;;;5076841;28;20017;-82
2023/11/10 07:49:26;;;;;;;4.77;0.90;;;7.90;99.90;;;;;;5081459;28;20013;-82
2023/11/10 07:51:53;;;;;;;3.10;0.70;;;7.90;99.90;;;;;;5075421;28;20016;-84
2023/11/10 07:54:20;;;;;;;5.90;1.20;;;8.00;99.90;;;;;;5073401;28;20074;-83
2023/11/10 07:56:46;;;;;;;2.87;0.70;;;8.00;99.90;;;;;;5071958;28;20017;-84
2023/11/10 07:59:11;;;;;;;8.47;1.37;;;8.10;99.90;;;;;;5073589;28;20048;-82
2023/11/10 08:01:37;;;;;;;5.17;0.97;;;8.00;99.90;;;;;;5073218;28;20039;-83
2023/11/10 08:04:03;;;;;;;7.83;1.30;;;8.10;99.90;;;;;;5066745;28;20078;-81
2023/11/10 08:06:29;;;;;;;3.70;0.70;;;8.10;99.90;;;;;;5051625;28;20112;-83
2023/11/10 08:08:55;;;;;;;5.53;1.17;;;8.10;99.90;;;;;;5053750;28;20021;-83
2023/11/10 08:11:21;;;;;;;5.90;0.80;;;8.20;99.90;;;;;;5053021;28;20025;-80
2023/11/10 08:13:47;;;;;;;4.73;1.43;;;8.20;99.90;;;;;;5054087;28;20100;-81
2023/11/10 08:16:12;;;;;;;6.13;1.03;;;8.10;99.90;;;;;;5052845;28;20120;-79
2023/11/10 08:18:38;;;;;;;6.60;0.90;;;8.20;99.90;;;;;;5052877;28;20472;-78
2023/11/10 08:21:04;;;;;;;5.53;1.03;;;8.20;99.90;;;;;;5053195;28;20029;-79
2023/11/10 08:23:30;;;;;;;6.73;1.20;;;8.30;99.90;;;;;;5051680;28;20043;-80
2023/11/10 08:25:55;;;;;;;13.40;1.37;;;8.30;99.90;;;;;;5052531;28;20380;-80
2023/11/10 08:28:21;;;;;;;6.33;1.30;;;8.30;99.90;;;;;;5051522;28;20428;-79
2023/11/10 08:30:47;;;;;;;7.87;1.20;;;8.30;99.90;;;;;;5051481;28;20040;-78
2023/11/10 08:33:13;;;;;;;3.33;1.00;;;8.30;99.90;;;;;;5052856;28;20100;-79
2023/11/10 08:35:39;;;;;;;8.87;1.77;;;8.30;99.90;;;;;;5053278;28;20079;-81
2023/11/10 08:38:05;;;;;;;5.87;1.23;;;8.40;99.90;;;;;;5051896;28;20083;-79
2023/11/10 08:40:31;;;;;;;4.73;1.03;;;8.40;99.90;;;;;;5052645;28;20049;-79
2023/11/10 08:42:56;;;;;;;9.97;1.50;;;8.40;99.90;;;;;;5051465;28;20017;-79
2023/11/10 08:45:24;;;;;;;5.47;1.30;;;8.40;99.90;;;;;;5052758;28;20460;-79
2023/11/10 08:47:50;;;;;;;7.57;1.50;;;8.50;99.90;;;;;;5051628;28;20017;-80
2023/11/10 08:50:16;;;;;;;6.10;1.00;;;8.50;99.90;;;;;;5051467;28;20025;-79
2023/11/10 08:52:42;;;;;;;6.50;1.00;;;8.60;99.90;;;;;;5051116;28;20036;-79
2023/11/10 08:55:11;;;;;;;7.33;1.00;;;8.60;99.90;;;;;;5051422;28;20025;-79
2023/11/10 08:57:41;;;;;;;7.07;0.93;;;8.60;99.90;;;;;;5051360;28;20031;-80
2023/11/10 09:00:09;;;;;;;8.10;1.30;;;8.60;99.90;;;;;;5052548;28;20041;-78
2023/11/10 09:02:36;;;;;;;7.60;1.00;;;8.60;99.90;;;;;;5052637;28;20025;-79
2023/11/10 09:05:02;;;;;;;9.50;1.03;;;8.70;99.90;;;;;;5052264;28;20017;-80
2023/11/10 09:07:28;;;;;;;6.03;1.10;;;8.70;99.90;;;;;;5052408;28;20086;-79
2023/11/10 09:09:53;;;;;;;7.33;1.00;;;8.70;99.90;;;;;;5052798;28;20021;-80
2023/11/10 09:12:22;;;;;;;8.70;1.10;;;8.80;99.90;;;;;;5052507;28;20056;-79
2023/11/10 09:14:48;;;;;;;5.40;1.23;;;8.90;99.90;;;;;;5051073;28;20078;-79
2023/11/10 09:17:13;;;;;;;4.27;1.20;;;8.90;99.90;;;;;;5051065;28;20032;-80
2023/11/10 09:19:39;;;;;;;6.60;1.60;;;9.00;99.90;;;;;;5052306;28;20021;-80
2023/11/10 09:22:05;;;;;;;11.13;2.13;;;9.00;99.90;;;;;;5052203;28;20017;-79
2023/11/10 09:24:31;;;;;;;5.43;1.33;;;9.10;99.90;;;;;;5052573;28;20392;-79
2023/11/10 09:27:00;;;;;;;7.50;1.40;;;9.10;99.90;;;;;;5052514;28;20032;-80
2023/11/10 09:29:29;;;;;;;7.57;1.30;;;9.20;99.90;;;;;;5052149;28;20028;-79
2023/11/10 09:31:56;;;;;;;6.63;1.63;;;9.20;99.90;;;;;;5051185;28;20025;-79
2023/11/10 09:34:24;;;;;;;4.23;0.70;;;9.20;99.90;;;;;;5052338;28;20040;-80
2023/11/10 09:36:53;;;;;;;7.53;1.20;;;9.20;99.90;;;;;;5052121;28;20353;-80
2023/11/10 09:39:20;;;;;;;7.07;1.00;;;9.20;99.90;;;;;;5052252;28;20075;-79
2023/11/10 09:41:50;;;;;;;11.10;1.70;;;9.20;99.90;;;;;;5052251;28;20021;-82
2023/11/10 09:44:17;;;;;;;11.90;1.30;;;9.20;99.90;;;;;;5052367;28;20071;-79
2023/11/10 09:46:44;;;;;;;11.77;1.50;;;9.30;99.90;;;;;;5052166;28;20060;-81
2023/11/10 09:49:11;;;;;;;10.60;1.57;;;9.30;99.90;;;;;;5052400;28;20028;-79
2023/11/10 09:51:42;;;;;;;9.07;1.40;;;9.20;99.90;;;;;;5055583;28;20029;-79
2023/11/10 09:54:08;;;;;;;7.07;1.37;;;9.20;99.90;;;;;;5054714;28;20032;-79
2023/11/10 09:56:35;;;;;;;4.10;0.90;;;9.30;99.90;;;;;;5055735;28;20033;-79
2023/11/10 09:59:02;;;;;;;7.07;1.17;;;9.40;99.90;;;;;;5054589;28;20072;-79
2023/11/10 10:01:28;;;;;;;6.30;1.10;;;9.50;99.90;;;;;;5055542;28;20036;-79
2023/11/10 10:03:54;;;;;;;3.40;0.70;;;9.50;99.90;;;;;;5055378;28;20028;-79
2023/11/10 10:06:21;;;;;;;9.03;1.20;;;9.60;99.90;;;;;;5055527;28;20022;-80
2023/11/10 10:08:47;;;;;;;5.40;1.10;;;9.70;99.90;;;;;;5054248;28;20021;-80
2023/11/10 10:11:15;;;;;;;10.50;1.20;;;9.80;99.90;;;;;;5054029;28;20166;-80
2023/11/10 10:13:42;;;;;;;6.07;0.90;;;9.80;99.90;;;;;;5055447;28;20078;-79
2023/11/10 10:16:10;;;;;;;9.07;1.20;;;9.90;99.90;;;;;;5054957;28;20021;-80
2023/11/10 10:18:38;;;;;;;5.10;1.00;;;9.80;99.90;;;;;;5055106;28;20484;-79
2023/11/10 10:21:05;;;;;;;4.00;0.90;;;9.80;99.90;;;;;;5055523;28;20116;-79
2023/11/10 10:23:32;;;;;;;8.07;1.40;;;9.80;99.90;;;;;;5053998;28;20057;-79
2023/11/10 10:25:58;;;;;;;6.10;1.00;;;9.70;99.90;;;;;;5054995;28;20031;-78
2023/11/10 10:28:24;;;;;;;6.43;0.90;;;9.70;99.90;;;;;;5055081;28;20096;-79
2023/11/10 10:30:50;;;;;;;9.90;1.70;;;9.70;99.90;;;;;;5054830;28;20108;-79
2023/11/10 10:33:16;;;;;;;10.13;1.20;;;9.60;99.90;;;;;;5055007;28;20017;-79
2023/11/10 10:35:43;;;;;;;9.87;1.60;;;9.50;99.90;;;;;;5055376;28;20028;-78
2023/11/10 10:38:09;;;;;;;6.17;1.07;;;9.50;99.90;;;;;;5054810;28;20029;-79
2023/11/10 10:40:39;;;;;;;7.87;1.67;;;9.40;99.90;;;;;;5054519;28;20025;-78
2023/11/10 10:43:06;;;;;;;12.27;1.40;;;9.40;99.90;;;;;;5054681;28;20021;-79
2023/11/10 10:45:35;;;;;;;6.20;1.37;;;9.30;99.90;;;;;;5053305;28;20143;-79
2023/11/10 10:48:04;;;;;;;8.17;1.10;;;9.30;99.90;;;;;;5054873;28;20036;-80
2023/11/10 10:50:32;;;;;;;8.10;1.23;;;9.20;99.90;;;;;;5054459;28;20039;-79
2023/11/10 10:53:00;;;;;;;8.33;1.30;;;9.20;99.90;;;;;;5054516;28;20112;-79
2023/11/10 10:55:26;;;;;;;5.97;1.13;;;9.20;99.90;;;;;;5054260;28;20025;-79
2023/11/10 10:57:55;;;;;;;9.77;1.20;;;9.20;99.90;;;;;;5054265;28;20503;-79
2023/11/10 11:00:23;;;;;;;12.33;1.57;;;9.20;99.90;;;;;;5053439;28;20051;-79
2023/11/10 11:03:33;;;;;;;3.90;0.73;;;9.20;99.90;;;;;;5054297;28;20491;-79
2023/11/10 11:06:46;;;;;;;5.70;1.20;;;9.10;99.90;;;;;;5012196;28;20030;-79
2023/11/10 11:09:33;;;;;;;5.40;1.23;;;9.10;99.90;;;;;;5047177;28;20037;-80
2023/11/10 11:12:22;;;;;;;3.63;0.90;;;9.10;99.90;;;;;;5054252;28;20028;-79
2023/11/10 11:15:01;;;;;;;8.83;1.40;;;9.10;99.90;;;;;;5052620;28;20048;-79
2023/11/10 11:17:51;;;;;;;8.83;1.37;;;9.00;99.90;;;;;;5056523;28;20025;-78
2023/11/10 11:20:17;;;;;;;6.13;1.00;;;9.00;99.90;;;;;;5056459;28;20017;-79
2023/11/10 11:22:44;;;;;;;6.53;0.93;;;9.00;99.90;;;;;;5052762;28;20048;-79
2023/11/10 11:25:12;;;;;;;8.83;1.00;;;9.00;99.90;;;;;;5052635;28;20017;-79
2023/11/10 11:27:38;;;;;;;5.17;1.17;;;9.00;99.90;;;;;;5053917;28;20025;-80
2023/11/10 11:30:08;;;;;;;5.40;1.20;;;9.00;99.90;;;;;;5053763;28;20079;-78
2023/11/10 11:32:40;;;;;;;3.50;0.80;;;8.90;99.90;;;;;;5053792;28;20033;-79
2023/11/10 11:35:16;;;;;;;6.07;1.20;;;8.90;99.90;;;;;;5053531;28;20025;-79
2023/11/10 11:37:45;;;;;;;6.07;1.20;;;8.90;99.90;;;;;;5053425;28;20090;-79
2023/11/10 11:40:12;;;;;;;4.47;1.00;;;8.90;99.90;;;;;;5053698;28;20111;-79
2023/11/10 11:42:41;;;;;;;6.97;0.97;;;8.90;99.90;;;;;;5054234;28;20078;-79
2023/11/10 11:45:11;;;;;;;5.57;1.17;;;8.90;99.90;;;;;;5052269;28;20094;-78
2023/11/10 11:47:38;;;;;;;4.77;0.87;;;9.00;99.90;;;;;;5053684;28;20056;-79
2023/11/10 11:50:05;;;;;;;8.53;1.07;;;9.00;99.90;;;;;;5053362;28;20380;-79
2023/11/10 11:52:31;;;;;;;5.13;1.23;;;9.10;99.90;;;;;;5053409;28;20017;-80
2023/11/10 11:54:57;;;;;;;6.80;1.00;;;9.10;99.90;;;;;;5053628;28;20039;-79
2023/11/10 11:57:25;;;;;;;4.33;0.80;;;9.10;99.90;;;;;;5053262;28;20073;-79
2023/11/10 11:59:51;;;;;;;5.00;1.00;;;9.10;99.90;;;;;;5051675;28;20048;-79
2023/11/10 12:02:20;;;;;;;5.80;0.97;;;9.10;99.90;;;;;;5053345;28;20017;-79
2023/11/10 12:04:46;;;;;;;6.47;0.83;;;9.10;99.90;;;;;;5051925;28;20063;-79
2023/11/10 12:07:12;;;;;;;5.70;1.17;;;9.20;99.90;;;;;;5051727;28;20385;-81
2023/11/10 12:09:37;;;;;;;4.83;1.10;;;9.10;99.90;;;;;;5053054;28;20023;-79
2023/11/10 12:12:04;;;;;;;5.63;1.30;;;9.10;99.90;;;;;;5050574;28;20020;-79
2023/11/10 12:14:30;;;;;;;6.27;1.10;;;9.10;99.90;;;;;;5053066;28;20057;-79
2023/11/10 12:16:56;;;;;;;3.20;0.73;;;9.10;99.90;;;;;;5051741;28;20108;-79
2023/11/10 12:19:23;;;;;;;6.30;1.10;;;9.10;99.90;;;;;;5052884;28;20108;-79
2023/11/10 12:21:50;;;;;;;6.47;1.30;;;9.10;99.90;;;;;;5051785;28;20024;-79
2023/11/10 12:24:19;;;;;;;5.23;0.80;;;9.10;99.90;;;;;;5053183;28;20500;-79
2023/11/10 12:26:47;;;;;;;4.23;0.70;;;9.10;99.90;;;;;;5052986;28;20028;-79
2023/11/10 12:29:17;;;;;;;4.57;1.40;;;9.20;99.90;;;;;;5052906;28;20017;-79
2023/11/10 12:31:50;;;;;;;3.33;0.70;;;9.30;99.90;;;;;;5052536;28;20017;-78
2023/11/10 12:34:16;;;;;;;3.47;0.97;;;9.30;99.90;;;;;;5051618;28;20013;-80
2023/11/10 12:36:42;;;;;;;3.07;0.70;;;9.30;99.90;;;;;;5052993;28;20763;-79
2023/11/10 12:39:14;;;;;;;4.40;0.60;;;9.30;99.90;;;;;;5051233;28;20438;-79
2023/11/10 12:41:40;;;;;;;3.33;0.60;;;9.30;99.90;;;;;;5052815;28;20033;-80
2023/11/10 12:44:08;;;;;;;5.53;0.80;;;9.40;99.90;;;;;;5052830;28;20171;-79
2023/11/10 12:46:35;;;;;;;5.27;0.90;;;9.40;99.90;;;;;;5052831;28;20032;-79
2023/11/10 12:49:01;;;;;;;3.80;0.60;;;9.40;99.90;;;;;;5051069;28;20518;-80
2023/11/10 12:51:29;;;;;;;4.33;0.80;;;9.40;99.90;;;;;;5052567;28;20092;-79
2023/11/10 12:54:08;;;;;;;4.70;0.80;;;9.40;99.90;;;;;;5052674;28;20017;-79
2023/11/10 12:56:35;;;;;;;5.20;0.90;;;9.40;99.90;;;;;;5052497;28;20045;-78
2023/11/10 12:59:03;;;;;;;5.07;0.70;;;9.40;99.90;;;;;;5052354;28;20037;-78
2023/11/10 13:01:31;;;;;;;5.07;0.70;;;9.50;99.90;;;;;;5051327;28;20087;-79